Time;durP1;ratioP1;P1;durP2;ratioP2;P2;SDS_P1;SDS_P2;PMS_P1;PMS_P2;Temp;Humidity;BMP_temperature;BMP_pressure;BME280_temperature;BME280_humidity;BME280_pressure;Samples;Min_cycle;Max_cycle;Signal;HPM_P1;HPM_P2
2020/12/21 00:01:48;;;;;;;17.65;7.28;;;;;;;5.29;91.98;101960.94;5086340;28;20119;-79
2020/12/21 00:04:14;;;;;;;19.17;7.43;;;;;;;5.21;91.80;101960.44;5088289;28;20062;-79
2020/12/21 00:06:39;;;;;;;16.08;6.47;;;;;;;5.17;92.33;101957.59;5069925;28;20024;-80
2020/12/21 00:09:05;;;;;;;15.45;6.68;;;;;;;5.18;92.13;101949.16;5088026;28;20521;-79
2020/12/21 00:11:35;;;;;;;14.60;6.00;;;;;;;5.17;92.35;101947.41;5073122;28;20115;-78
2020/12/21 00:14:00;;;;;;;18.47;6.17;;;;;;;5.14;92.69;101943.00;5088980;28;20028;-79
2020/12/21 00:16:26;;;;;;;18.30;6.15;;;;;;;5.22;92.92;101930.75;5070228;28;20032;-82
2020/12/21 00:18:51;;;;;;;23.63;7.27;;;;;;;5.35;92.89;101928.19;5089511;28;20028;-79
2020/12/21 00:21:16;;;;;;;23.35;6.18;;;;;;;5.33;92.65;101929.75;5070936;28;20481;-79
2020/12/21 00:23:42;;;;;;;18.00;5.70;;;;;;;5.37;92.24;101925.72;5069256;28;20028;-79
2020/12/21 00:26:07;;;;;;;23.77;6.00;;;;;;;5.36;92.54;101929.94;5069655;28;20300;-80
2020/12/21 00:28:33;;;;;;;18.20;5.95;;;;;;;5.36;92.36;101919.75;5066554;28;20122;-79
2020/12/21 00:30:58;;;;;;;24.33;5.50;;;;;;;5.37;92.30;101924.06;5068668;28;20032;-81
2020/12/21 00:33:23;;;;;;;17.92;5.82;;;;;;;5.40;92.30;101923.38;5068574;28;20020;-79
2020/12/21 00:35:48;;;;;;;17.40;5.60;;;;;;;5.48;92.10;101923.03;5086620;28;20497;-79
2020/12/21 00:38:14;;;;;;;19.63;5.63;;;;;;;5.40;91.94;101931.00;5068302;28;20271;-79
2020/12/21 00:40:39;;;;;;;14.87;5.77;;;;;;;5.40;92.07;101928.47;5086189;28;20035;-79
2020/12/21 00:43:04;;;;;;;17.20;5.43;;;;;;;5.40;91.82;101931.88;5086898;28;20094;-78
2020/12/21 00:45:30;;;;;;;18.73;5.50;;;;;;;5.32;91.96;101925.44;5085419;28;20054;-81
2020/12/21 00:47:55;;;;;;;20.00;5.23;;;;;;;5.35;92.02;101922.22;5087225;28;20035;-78
2020/12/21 00:50:20;;;;;;;22.37;4.70;;;;;;;5.37;91.80;101913.88;5084818;28;20353;-79
2020/12/21 00:52:45;;;;;;;15.95;4.55;;;;;;;5.32;92.12;101916.13;5066650;28;20023;-79
2020/12/21 00:55:11;;;;;;;16.90;5.53;;;;;;;5.37;92.35;101915.53;5069908;28;20027;-80
2020/12/21 00:57:36;;;;;;;13.82;4.70;;;;;;;5.44;91.85;101925.31;5066348;28;20767;-79
2020/12/21 01:00:05;;;;;;;9.63;4.10;;;;;;;5.39;91.86;101912.28;5067871;28;20031;-78
2020/12/21 01:02:30;;;;;;;14.90;5.07;;;;;;;5.32;92.11;101915.25;5067482;28;20031;-80
2020/12/21 01:04:55;;;;;;;15.70;4.17;;;;;;;5.41;92.09;101918.38;5067137;28;20174;-79
2020/12/21 01:07:21;;;;;;;15.27;4.57;;;;;;;5.33;91.78;101922.13;5086204;28;20039;-80
2020/12/21 01:09:46;;;;;;;13.53;4.67;;;;;;;5.27;92.14;101919.19;5066196;28;20292;-79
2020/12/21 01:12:14;;;;;;;19.95;5.10;;;;;;;5.26;92.11;101917.44;5085227;28;20032;-81
2020/12/21 01:14:39;;;;;;;15.23;4.27;;;;;;;5.25;92.46;101918.22;5067187;28;20112;-79
2020/12/21 01:17:05;;;;;;;10.98;3.72;;;;;;;5.19;92.52;101911.03;5067192;28;20031;-79
2020/12/21 01:19:30;;;;;;;19.23;4.95;;;;;;;5.28;92.12;101911.66;5066312;28;20023;-81
2020/12/21 01:21:57;;;;;;;16.73;4.17;;;;;;;5.22;92.20;101915.47;5066420;28;20378;-79
2020/12/21 01:24:22;;;;;;;19.87;4.07;;;;;;;5.17;92.49;101916.84;5084641;28;20194;-81
2020/12/21 01:26:47;;;;;;;13.97;4.07;;;;;;;5.17;92.57;101916.84;5065558;28;20684;-80
2020/12/21 01:29:13;;;;;;;15.80;4.53;;;;;;;5.22;92.50;101911.28;5065511;28;20277;-80
2020/12/21 01:31:38;;;;;;;15.60;3.53;;;;;;;5.24;92.74;101908.81;5065619;28;20077;-80
2020/12/21 01:34:03;;;;;;;12.33;4.10;;;;;;;5.25;92.13;101906.38;5083861;28;20075;-80
2020/12/21 01:36:28;;;;;;;14.50;4.30;;;;;;;5.26;92.23;101907.25;5065719;28;20282;-79
2020/12/21 01:38:54;;;;;;;15.77;5.13;;;;;;;5.18;92.55;101913.50;5087101;28;20016;-80
2020/12/21 01:41:19;;;;;;;17.23;4.47;;;;;;;5.13;92.70;101920.84;5070869;28;20320;-80
2020/12/21 01:43:44;;;;;;;19.60;4.13;;;;;;;5.13;92.96;101922.53;5072811;28;20023;-80
2020/12/21 01:46:15;;;;;;;16.10;3.67;;;;;;;5.17;92.68;101924.47;5086596;28;20271;-80
2020/12/21 01:48:43;;;;;;;13.30;4.20;;;;;;;5.07;92.79;101922.16;5069355;28;20020;-81
2020/12/21 01:51:19;;;;;;;12.60;3.77;;;;;;;5.15;92.79;101929.47;5072441;28;20059;-82
2020/12/21 01:53:44;;;;;;;18.77;3.72;;;;;;;5.09;92.71;101929.09;5088094;28;20545;-80
2020/12/21 01:56:10;;;;;;;17.27;4.18;;;;;;;5.02;93.01;101920.97;5088730;28;20028;-79
2020/12/21 01:58:35;;;;;;;14.55;4.22;;;;;;;5.16;93.00;101925.25;5086533;28;20432;-80
2020/12/21 02:01:03;;;;;;;20.33;4.47;;;;;;;5.12;93.08;101923.31;5068027;28;20052;-79
2020/12/21 02:03:28;;;;;;;15.70;4.90;;;;;;;5.16;93.04;101918.50;5068727;28;20091;-80
2020/12/21 02:05:54;;;;;;;17.63;4.50;;;;;;;5.13;93.00;101925.06;5067109;28;20055;-79
2020/12/21 02:08:19;;;;;;;15.30;3.97;;;;;;;5.09;93.47;101924.00;5069445;28;20024;-82
2020/12/21 02:10:45;;;;;;;18.90;4.15;;;;;;;5.09;93.36;101918.03;5089630;28;20028;-79
2020/12/21 02:13:10;;;;;;;18.25;4.25;;;;;;;5.15;93.44;101920.94;5067064;28;20024;-81
2020/12/21 02:15:35;;;;;;;23.03;4.40;;;;;;;5.08;93.42;101921.34;5067725;28;20115;-80
2020/12/21 02:18:00;;;;;;;17.48;4.18;;;;;;;5.07;93.27;101924.69;5066947;28;20028;-80
2020/12/21 02:20:31;;;;;;;18.77;4.13;;;;;;;5.02;93.12;101921.88;5069330;28;20024;-79
2020/12/21 02:22:57;;;;;;;14.20;3.67;;;;;;;4.96;93.18;101912.19;5085645;28;20428;-79
2020/12/21 02:25:22;;;;;;;22.65;4.30;;;;;;;4.92;93.38;101919.53;5066992;28;20020;-81
2020/12/21 02:27:48;;;;;;;14.73;4.80;;;;;;;4.99;94.03;101912.38;5067988;28;21522;-79
2020/12/21 02:30:13;;;;;;;12.03;3.53;;;;;;;5.03;93.76;101917.66;5085923;28;20020;-80
2020/12/21 02:32:38;;;;;;;17.57;3.97;;;;;;;4.94;93.89;101915.41;5066095;28;20277;-79
2020/12/21 02:35:06;;;;;;;14.00;5.17;;;;;;;5.02;93.43;101915.88;5065387;28;20504;-81
2020/12/21 02:37:31;;;;;;;17.23;3.67;;;;;;;4.92;93.50;101914.44;5083891;28;20074;-78
2020/12/21 02:39:56;;;;;;;20.97;4.53;;;;;;;4.94;93.92;101903.56;5065157;28;20436;-79
2020/12/21 02:42:21;;;;;;;16.00;3.97;;;;;;;4.94;94.07;101903.56;5065255;28;20279;-79
2020/12/21 02:44:47;;;;;;;20.57;4.70;;;;;;;5.00;93.92;101898.84;5085064;28;20529;-79
2020/12/21 02:47:12;;;;;;;21.20;4.83;;;;;;;4.96;93.73;101896.00;5065783;28;20025;-80
2020/12/21 02:49:37;;;;;;;15.45;3.75;;;;;;;5.00;93.79;101891.22;5065594;28;20028;-79
2020/12/21 02:52:02;;;;;;;12.53;3.17;;;;;;;4.95;94.09;101896.81;5066158;28;20465;-81
2020/12/21 02:54:28;;;;;;;13.40;4.30;;;;;;;5.00;94.07;101892.88;5065286;28;20048;-79
2020/12/21 02:56:53;;;;;;;15.57;3.50;;;;;;;4.97;94.06;101888.47;5084927;28;20763;-80
2020/12/21 02:59:19;;;;;;;12.93;3.40;;;;;;;4.87;93.99;101896.28;5065584;28;20108;-79
2020/12/21 03:01:45;;;;;;;22.33;4.68;;;;;;;5.03;94.20;101897.28;5085178;28;20028;-80
2020/12/21 03:04:10;;;;;;;21.48;4.40;;;;;;;4.98;94.22;101891.91;5069273;28;20035;-80
2020/12/21 03:06:35;;;;;;;18.75;4.65;;;;;;;4.91;93.92;101898.28;5069160;28;20020;-80
2020/12/21 03:09:00;;;;;;;17.03;3.93;;;;;;;4.92;94.17;101900.03;5090642;28;20028;-79
2020/12/21 03:11:26;;;;;;;14.37;4.03;;;;;;;4.83;94.11;101894.34;5072214;28;20106;-81
2020/12/21 03:13:51;;;;;;;16.67;4.43;;;;;;;4.91;93.96;101898.28;5066977;28;20298;-79
2020/12/21 03:16:16;;;;;;;13.43;3.33;;;;;;;4.84;93.90;101896.09;5071308;28;20070;-80
2020/12/21 03:18:41;;;;;;;19.07;3.47;;;;;;;4.78;94.03;101894.84;5067804;28;20499;-80
2020/12/21 03:21:07;;;;;;;12.97;4.20;;;;;;;4.69;94.01;101893.47;5069809;28;20285;-79
2020/12/21 03:23:32;;;;;;;12.83;4.10;;;;;;;4.66;94.10;101895.81;5067199;28;20031;-79
2020/12/21 03:25:57;;;;;;;14.25;4.60;;;;;;;4.72;94.24;101890.25;5088269;28;20024;-81
2020/12/21 03:28:22;;;;;;;19.07;5.40;;;;;;;4.65;94.01;101896.63;5069699;28;20048;-79
2020/12/21 03:30:48;;;;;;;14.50;5.63;;;;;;;4.54;94.21;101899.22;5069764;28;20090;-80
2020/12/21 03:33:13;;;;;;;20.50;5.50;;;;;;;4.55;94.37;101906.06;5069231;28;20025;-80
2020/12/21 03:35:38;;;;;;;15.98;5.75;;;;;;;4.56;94.27;101895.16;5067427;28;20102;-79
2020/12/21 03:38:04;;;;;;;21.05;5.90;;;;;;;4.64;94.80;101892.31;5068719;28;20138;-82
2020/12/21 03:40:29;;;;;;;25.33;6.45;;;;;;;4.72;94.52;101889.38;5088864;28;20047;-81
2020/12/21 03:42:54;;;;;;;19.63;5.70;;;;;;;4.65;94.49;101898.28;5070044;28;20099;-80
2020/12/21 03:45:20;;;;;;;18.53;5.47;;;;;;;4.65;94.25;101894.06;5087757;28;20020;-80
2020/12/21 03:47:45;;;;;;;21.85;6.50;;;;;;;4.62;94.04;101890.44;5068734;28;20362;-80
2020/12/21 03:50:10;;;;;;;24.33;6.13;;;;;;;4.64;94.50;101891.44;5086383;28;20021;-84
2020/12/21 03:52:35;;;;;;;28.43;6.83;;;;;;;4.68;94.74;101880.66;5067736;28;20278;-80
2020/12/21 03:55:01;;;;;;;20.70;5.97;;;;;;;4.73;94.60;101865.66;5087365;28;20289;-81
2020/12/21 03:57:26;;;;;;;17.85;6.25;;;;;;;4.84;94.72;101869.75;5087026;28;20027;-80
2020/12/21 03:59:52;;;;;;;20.73;6.13;;;;;;;4.90;94.77;101860.00;5067776;28;20074;-80
2020/12/21 04:02:17;;;;;;;19.53;6.07;;;;;;;4.85;94.60;101862.22;5086300;28;20274;-81
2020/12/21 04:04:42;;;;;;;16.67;6.40;;;;;;;4.85;94.41;101864.78;5123478;22;20145;-81
2020/12/21 04:07:07;;;;;;;18.23;5.90;;;;;;;4.87;94.15;101854.69;5127420;27;20079;-82
2020/12/21 04:09:33;;;;;;;29.75;6.88;;;;;;;4.96;93.97;101856.16;5123919;27;20110;-79
2020/12/21 04:11:58;;;;;;;15.40;5.90;;;;;;;4.92;94.11;101845.69;5107594;27;20119;-80
2020/12/21 04:14:23;;;;;;;24.90;6.83;;;;;;;5.01;94.17;101833.53;5128095;27;20326;-81
2020/12/21 04:16:48;;;;;;;22.43;6.30;;;;;;;4.98;94.34;101838.44;5126928;27;20102;-81
2020/12/21 04:19:14;;;;;;;18.37;6.43;;;;;;;4.94;94.02;101839.03;5125807;27;20296;-79
2020/12/21 04:21:39;;;;;;;20.85;6.43;;;;;;;5.00;94.07;101840.28;5123604;27;20069;-80
2020/12/21 04:24:04;;;;;;;22.83;7.07;;;;;;;5.07;93.63;101835.56;5112604;27;20031;-79
2020/12/21 04:26:29;;;;;;;27.00;7.10;;;;;;;4.97;93.82;101837.53;5109565;27;20007;-79
2020/12/21 04:28:55;;;;;;;26.63;7.82;;;;;;;4.93;94.10;101830.50;5126398;27;20023;-79
2020/12/21 04:31:20;;;;;;;22.75;7.70;;;;;;;5.03;93.96;101836.16;5123305;27;20019;-79
2020/12/21 04:33:47;;;;;;;27.63;7.60;;;;;;;5.03;93.95;101831.06;5109643;27;20026;-80
2020/12/21 04:36:13;;;;;;;23.93;7.80;;;;;;;4.94;94.11;101834.81;5127905;27;20027;-79
2020/12/21 04:38:42;;;;;;;29.45;7.22;;;;;;;4.96;94.31;101834.91;5127520;27;20092;-79
2020/12/21 04:41:08;;;;;;;25.70;7.60;;;;;;;4.94;94.02;101832.28;5124652;27;20058;-80
2020/12/21 04:43:34;;;;;;;25.63;8.50;;;;;;;4.99;94.32;101820.69;5105277;27;20030;-78
2020/12/21 04:46:05;;;;;;;21.00;7.93;;;;;;;4.92;94.14;101818.56;5123277;27;20477;-82
2020/12/21 04:48:36;;;;;;;25.70;7.77;;;;;;;4.92;94.33;101826.19;5122656;27;20138;-81
2020/12/21 04:51:02;;;;;;;20.97;8.03;;;;;;;4.92;94.48;101821.13;5105636;27;20032;-80
2020/12/21 04:53:28;;;;;;;19.33;8.10;;;;;;;4.92;94.34;101817.69;5122966;27;20091;-79
2020/12/21 04:55:53;;;;;;;18.67;8.30;;;;;;;4.96;94.63;101812.88;5108197;27;20437;-79
2020/12/21 04:58:18;;;;;;;28.83;9.02;;;;;;;5.03;94.25;101818.34;5124739;27;20034;-80
2020/12/21 05:00:44;;;;;;;20.27;8.63;;;;;;;5.03;94.43;101810.69;5107517;27;20023;-80
2020/12/21 05:03:09;;;;;;;21.05;7.78;;;;;;;5.14;93.80;101809.69;5123583;27;20307;-80
2020/12/21 05:05:42;;;;;;;19.95;7.38;;;;;;;5.11;93.66;101804.41;5109592;27;20031;-80
2020/12/21 05:08:17;;;;;;;28.40;8.30;;;;;;;5.13;93.67;101800.28;5107110;27;20027;-80
2020/12/21 05:10:56;;;;;;;18.40;7.20;;;;;;;5.13;93.70;101800.28;5105877;27;20030;-80
2020/12/21 05:13:22;;;;;;;27.33;8.27;;;;;;;5.04;93.75;101803.16;5125372;27;20031;-78
2020/12/21 05:15:54;;;;;;;27.40;8.05;;;;;;;5.06;93.66;101803.25;5126387;27;20035;-80
2020/12/21 05:18:24;;;;;;;19.03;6.97;;;;;;;5.13;93.65;101797.72;5121150;27;20023;-80
2020/12/21 05:21:00;;;;;;;22.80;8.50;;;;;;;5.10;93.53;101802.63;5104095;27;20023;-80
2020/12/21 05:23:26;;;;;;;28.42;8.80;;;;;;;4.98;93.86;101803.66;5125997;27;20031;-81
2020/12/21 05:26:06;;;;;;;25.67;8.15;;;;;;;5.01;94.00;101797.88;5102882;28;20024;-80
2020/12/21 05:28:35;;;;;;;22.00;8.47;;;;;;;5.03;93.98;101798.84;5124309;27;20026;-81
2020/12/21 05:31:03;;;;;;;20.33;7.57;;;;;;;5.07;93.91;101797.38;5104582;27;20106;-80
2020/12/21 05:33:28;;;;;;;19.93;7.43;;;;;;;5.05;94.28;101798.94;5123661;27;20097;-80
2020/12/21 05:36:08;;;;;;;19.80;7.28;;;;;;;5.05;93.80;101799.81;5108635;27;20104;-81
2020/12/21 05:38:33;;;;;;;16.33;6.07;;;;;;;5.14;93.91;101799.50;5106479;27;20137;-80
2020/12/21 05:41:12;;;;;;;21.10;7.38;;;;;;;5.13;93.73;101795.19;5109515;27;20508;-82
2020/12/21 05:43:39;;;;;;;26.33;9.57;;;;;;;5.14;94.06;101786.75;5127401;27;20024;-80
2020/12/21 05:46:09;;;;;;;19.07;6.83;;;;;;;5.18;93.87;101781.06;5130178;27;20074;-82
2020/12/21 05:48:37;;;;;;;21.40;7.10;;;;;;;5.20;93.74;101779.47;5101391;28;20023;-81
2020/12/21 05:51:04;;;;;;;25.93;6.77;;;;;;;5.19;93.73;101782.81;5104161;27;20023;-80
2020/12/21 05:53:38;;;;;;;25.77;7.73;;;;;;;5.11;94.17;101789.13;5112182;27;20027;-82
2020/12/21 05:56:04;;;;;;;24.00;8.00;;;;;;;5.20;93.78;101788.03;5130332;27;20112;-82
2020/12/21 05:58:31;;;;;;;22.52;7.85;;;;;;;5.17;94.09;101786.94;5112738;28;20110;-79
2020/12/21 06:01:09;;;;;;;25.47;7.87;;;;;;;5.13;94.05;101796.06;5106474;27;20019;-80
2020/12/21 06:03:48;;;;;;;24.70;7.80;;;;;;;5.11;93.66;101802.72;5125512;27;20027;-80
2020/12/21 06:06:16;;;;;;;26.77;8.77;;;;;;;5.01;94.20;101787.69;5111426;28;20024;-80
2020/12/21 06:08:43;;;;;;;26.83;9.27;;;;;;;5.06;94.26;101787.97;5125184;28;20027;-80
2020/12/21 06:11:11;;;;;;;34.33;9.43;;;;;;;5.17;94.19;101781.84;5108252;28;20030;-80
2020/12/21 06:13:39;;;;;;;27.47;8.27;;;;;;;5.15;94.26;101780.88;5124836;28;20034;-82
2020/12/21 06:16:06;;;;;;;36.10;9.03;;;;;;;5.20;94.23;101779.47;5123557;28;20422;-80
2020/12/21 06:18:31;;;;;;;29.20;8.97;;;;;;;5.20;94.09;101774.38;5106566;28;20481;-80
2020/12/21 06:20:57;;;;;;;26.90;8.60;;;;;;;5.24;94.18;101782.31;5109492;28;20091;-81
2020/12/21 06:23:32;;;;;;;25.70;8.80;;;;;;;5.31;93.84;101776.81;5107460;28;20028;-81
2020/12/21 06:26:11;;;;;;;23.23;7.57;;;;;;;5.25;93.72;101780.66;5108379;28;20027;-81
2020/12/21 06:28:37;;;;;;;27.27;8.17;;;;;;;5.22;94.21;101781.34;5111070;28;20034;-80
2020/12/21 06:31:13;;;;;;;24.92;8.05;;;;;;;5.29;94.27;101783.47;5121821;28;20028;-81
2020/12/21 06:33:39;;;;;;;22.27;8.30;;;;;;;5.21;93.97;101777.06;5128596;28;20055;-80
2020/12/21 06:36:04;;;;;;;23.23;7.53;;;;;;;5.31;94.02;101784.44;5134063;27;20400;-80
2020/12/21 06:38:44;;;;;;;22.63;6.75;;;;;;;5.31;93.97;101784.44;5112896;27;20024;-82
2020/12/21 06:41:24;;;;;;;20.17;8.27;;;;;;;5.34;93.92;101783.75;5114200;27;20076;-81
2020/12/21 06:43:58;;;;;;;25.27;7.50;;;;;;;5.34;94.05;101791.38;5109935;27;20072;-79
2020/12/21 06:46:25;;;;;;;29.93;7.30;;;;;;;5.36;94.08;101789.81;5128931;27;20019;-80
2020/12/21 06:49:12;;;;;;;21.73;6.73;;;;;;;5.37;93.99;101788.13;5111670;27;20111;-79
2020/12/21 06:51:46;;;;;;;19.50;7.43;;;;;;;5.40;94.06;101784.09;5109241;27;20051;-81
2020/12/21 06:54:12;;;;;;;22.63;7.57;;;;;;;5.40;94.00;101778.13;5107575;27;20034;-82
2020/12/21 06:56:41;;;;;;;24.63;7.13;;;;;;;5.36;94.19;101766.88;5110326;27;20481;-79
2020/12/21 06:59:18;;;;;;;22.97;7.07;;;;;;;5.40;94.07;101770.50;5112498;27;20031;-80
2020/12/21 07:01:45;;;;;;;22.30;7.22;;;;;;;5.48;93.84;101759.06;5121994;27;20031;-80
2020/12/21 07:04:15;;;;;;;24.93;6.93;;;;;;;5.53;93.76;101763.69;5128996;27;20023;-82
2020/12/21 07:06:41;;;;;;;18.50;7.53;;;;;;;5.47;93.57;101753.09;5128837;27;20114;-81
2020/12/21 07:09:07;;;;;;;17.58;7.00;;;;;;;5.47;93.84;101745.44;5127562;27;20106;-80
2020/12/21 07:11:32;;;;;;;25.45;7.53;;;;;;;5.50;93.85;101745.63;5132310;27;20088;-81
2020/12/21 07:13:58;;;;;;;25.65;7.53;;;;;;;5.64;93.76;101738.81;5106213;28;20015;-80
2020/12/21 07:16:23;;;;;;;19.08;7.80;;;;;;;5.66;93.42;101727.03;5122935;27;20392;-79
2020/12/21 07:18:49;;;;;;;18.77;7.03;;;;;;;5.64;93.84;101720.97;5112418;28;20016;-78
2020/12/21 07:21:16;;;;;;;23.35;7.57;;;;;;;5.65;93.51;101721.84;5125785;27;20023;-79
2020/12/21 07:23:42;;;;;;;23.13;7.77;;;;;;;5.65;93.49;101720.16;5128591;27;20400;-79
2020/12/21 07:26:08;;;;;;;16.70;7.40;;;;;;;5.62;93.64;101735.28;5106681;27;20028;-77
2020/12/21 07:28:33;;;;;;;;;;;;;;;5.66;94.13;101736.34;5128178;27;20064;-81
2020/12/21 07:31:07;;;;;;;18.70;7.93;;;;;;;5.71;94.10;101742.56;5122628;27;20392;-79
2020/12/21 07:33:34;;;;;;;21.07;9.10;;;;;;;5.83;93.64;101735.63;5129659;27;20034;-79
2020/12/21 07:36:00;;;;;;;20.80;10.43;;;;;;;5.81;93.71;101737.19;5104152;27;20028;-80
2020/12/21 07:38:25;;;;;;;28.27;11.32;;;;;;;5.79;93.85;101723.50;5104280;27;20056;-79
2020/12/21 07:40:53;;;;;;;25.03;13.37;;;;;;;5.83;93.63;101731.41;5125372;27;20023;-79
2020/12/21 07:43:25;;;;;;;26.73;12.50;;;;;;;5.87;93.50;101722.28;5123680;27;20276;-79
2020/12/21 07:45:52;;;;;;;32.10;14.63;;;;;;;5.84;93.71;101720.41;5107245;27;20043;-79
2020/12/21 07:48:17;;;;;;;;;;;;;;;5.87;93.75;101710.41;5123243;27;20019;-80
2020/12/21 07:50:45;;;;;;;35.90;18.40;;;;;;;5.82;93.55;101706.69;5125429;27;20387;-78
2020/12/21 07:53:11;;;;;;;36.30;18.60;;;;;;;5.94;93.90;101701.47;5108611;27;20114;-79
2020/12/21 07:55:36;;;;;;;46.17;20.27;;;;;;;5.92;93.73;101703.03;5108705;27;20020;-79
2020/12/21 07:58:01;;;;;;;36.22;19.45;;;;;;;5.97;93.63;101704.19;5125834;27;20094;-82
2020/12/21 08:00:28;;;;;;;44.00;20.53;;;;;;;5.96;94.07;101702.41;5130022;27;20415;-79
2020/12/21 08:02:59;;;;;;;32.77;19.27;;;;;;;6.01;93.99;101706.09;5103966;27;20176;-78
2020/12/21 08:05:24;;;;;;;43.40;20.67;;;;;;;6.00;94.13;101706.88;5126867;27;20024;-79
2020/12/21 08:07:50;;;;;;;38.00;20.75;;;;;;;6.01;94.16;101706.09;5106731;27;20069;-78
2020/12/21 08:10:18;;;;;;;35.97;18.13;;;;;;;6.10;93.97;101701.50;5130681;27;20100;-79
2020/12/21 08:12:44;;;;;;;37.93;17.73;;;;;;;6.09;93.74;101699.75;5102127;28;20366;-79
2020/12/21 08:15:11;;;;;;;35.72;17.48;;;;;;;6.14;93.74;101690.66;5102787;28;20031;-79
2020/12/21 08:17:37;;;;;;;30.70;17.37;;;;;;;6.18;93.52;101684.97;5125222;27;20019;-80
2020/12/21 08:20:07;;;;;;;26.58;17.35;;;;;;;6.18;93.87;101687.50;5107170;27;20034;-78
2020/12/21 08:22:33;;;;;;;37.47;17.60;;;;;;;6.16;93.93;101681.41;5122780;27;20056;-77
2020/12/21 08:25:02;;;;;;;;;;;;;;;6.15;94.27;101684.75;5130101;27;20545;-77
2020/12/21 08:27:27;;;;;;;32.20;17.57;;;;;;;6.21;93.94;101672.38;5101489;27;19930;-79
2020/12/21 08:30:06;;;;;;;33.72;16.10;;;;;;;6.26;93.67;101667.50;5118253;27;20023;-77
2020/12/21 08:32:31;;;;;;;33.17;17.60;;;;;;;6.30;94.14;101664.34;5124839;27;20019;-78
2020/12/21 08:34:59;;;;;;;35.90;18.30;;;;;;;6.31;94.45;101668.63;5120110;27;20095;-79
2020/12/21 08:37:26;;;;;;;39.53;18.13;;;;;;;6.29;94.26;101654.03;5114734;28;20277;-78
2020/12/21 08:39:51;;;;;;;;;;;;;;;6.34;94.22;101650.06;5128001;27;20146;-76
2020/12/21 08:42:16;;;;;;;37.73;17.70;;;;;;;6.33;94.59;101653.41;5101394;28;19943;-78
2020/12/21 08:44:41;;;;;;;33.53;17.43;;;;;;;6.32;94.87;101652.53;5122113;27;20034;-77
2020/12/21 08:47:07;;;;;;;34.37;16.33;;;;;;;6.35;94.52;101647.59;5106706;27;20035;-79
2020/12/21 08:49:33;;;;;;;33.93;15.43;;;;;;;6.40;94.44;101656.34;5103875;28;20024;-77
2020/12/21 08:52:00;;;;;;;28.63;13.82;;;;;;;6.41;94.71;101647.91;5122909;27;20638;-78
2020/12/21 08:54:26;;;;;;;27.60;14.00;;;;;;;6.37;94.58;101643.44;5110239;27;20019;-79
2020/12/21 08:56:57;;;;;;;26.13;14.37;;;;;;;6.42;94.61;101638.56;5123795;27;20400;-79
2020/12/21 08:59:23;;;;;;;27.93;13.47;;;;;;;6.45;94.42;101643.84;5098314;28;20308;-77
2020/12/21 09:01:48;;;;;;;27.05;11.50;;;;;;;6.52;93.97;101643.41;5100019;28;20031;-77
2020/12/21 09:04:13;;;;;;;26.98;11.48;;;;;;;6.53;94.03;101638.38;5123510;27;20028;-78
2020/12/21 09:06:39;;;;;;;31.17;11.98;;;;;;;6.52;93.74;101645.94;5119100;27;20034;-79
2020/12/21 09:09:05;;;;;;;24.75;10.27;;;;;;;6.57;93.84;101633.41;5128533;27;20469;-79
2020/12/21 09:11:30;;;;;;;;;;;;;;;6.56;94.02;101630.00;5122057;27;20488;-80
2020/12/21 09:13:56;;;;;;;24.93;10.70;;;;;;;6.55;93.86;101621.47;5126302;27;19925;-77
2020/12/21 09:16:26;;;;;;;15.73;9.77;;;;;;;6.63;93.59;101618.41;5106592;27;20027;-79
2020/12/21 09:18:53;;;;;;;21.87;9.50;;;;;;;6.63;93.87;101609.09;5112372;27;20333;-79
2020/12/21 09:21:24;;;;;;;17.67;9.07;;;;;;;6.64;93.66;101615.94;5116081;27;20030;-80
2020/12/21 09:23:51;;;;;;;27.53;10.10;;;;;;;6.66;94.23;101611.78;5103732;28;20051;-80
2020/12/21 09:26:17;;;;;;;20.07;8.47;;;;;;;6.64;93.90;101617.63;5105512;28;20102;-80
2020/12/21 09:28:43;;;;;;;22.17;9.30;;;;;;;6.66;93.82;101614.34;5131898;27;20499;-79
2020/12/21 09:31:15;;;;;;;;;;;;;;;6.68;93.80;101609.31;5104147;27;20476;-79
2020/12/21 09:33:41;;;;;;;21.70;8.10;;;;;;;6.63;94.17;101609.09;5129351;27;19943;-77
2020/12/21 09:36:07;;;;;;;19.30;9.10;;;;;;;6.70;94.12;101606.03;5111320;28;20034;-77
2020/12/21 09:38:35;;;;;;;23.17;8.80;;;;;;;6.65;94.55;101610.03;5110263;27;20445;-77
2020/12/21 09:41:01;;;;;;;;;;;;;;;6.65;94.36;101617.69;5110910;28;20030;-78
2020/12/21 09:43:26;;;;;;;21.00;8.83;;;;;;;6.71;94.49;101602.69;5107257;27;20289;-77
2020/12/21 09:45:52;;;;;;;19.88;8.05;;;;;;;6.68;94.49;101588.88;5105478;28;20027;-78
2020/12/21 09:48:17;;;;;;;25.33;9.10;;;;;;;6.68;94.23;101579.56;5134084;27;20027;-77
2020/12/21 09:50:43;;;;;;;29.87;10.30;;;;;;;6.67;94.52;101579.47;5109142;28;20034;-78
2020/12/21 09:53:08;;;;;;;21.50;8.15;;;;;;;6.70;94.53;101575.41;5114787;27;20272;-78
2020/12/21 09:55:33;;;;;;;17.23;8.82;;;;;;;6.71;94.58;101572.03;5134739;27;20488;-79
2020/12/21 09:57:59;;;;;;;21.55;8.70;;;;;;;6.73;94.27;101569.56;5128649;27;20449;-77
2020/12/21 10:00:24;;;;;;;18.83;8.73;;;;;;;6.75;94.44;101573.06;5128379;27;20415;-77
2020/12/21 10:02:49;;;;;;;26.10;8.57;;;;;;;6.74;94.26;101564.53;5116080;27;20130;-77
2020/12/21 10:05:14;;;;;;;21.98;9.70;;;;;;;6.76;94.61;101564.63;5125782;27;20291;-77
2020/12/21 10:07:40;;;;;;;24.63;9.27;;;;;;;6.82;94.35;101564.91;5130491;27;20027;-78
2020/12/21 10:10:05;;;;;;;20.00;9.53;;;;;;;6.76;94.30;101554.41;5125319;27;20114;-77
2020/12/21 10:12:30;;;;;;;20.17;10.10;;;;;;;6.77;94.49;101535.72;5128868;28;20288;-79
2020/12/21 10:14:56;;;;;;;23.52;8.93;;;;;;;6.82;94.20;101532.59;5121945;28;20296;-77
2020/12/21 10:17:21;;;;;;;19.80;9.27;;;;;;;6.83;94.23;101531.81;5131306;28;20102;-79
2020/12/21 10:19:46;;;;;;;23.67;9.20;;;;;;;6.83;94.39;101529.28;5111747;28;20030;-77
2020/12/21 10:22:12;;;;;;;20.50;8.40;;;;;;;6.89;93.86;101508.25;5105951;28;20320;-78
2020/12/21 10:24:37;;;;;;;23.70;6.40;;;;;;;6.94;93.88;101508.47;5128102;28;20269;-77
2020/12/21 10:27:02;;;;;;;18.87;8.53;;;;;;;6.97;93.90;101503.53;5106364;28;20036;-78
2020/12/21 10:29:27;;;;;;;17.23;7.72;;;;;;;6.89;94.08;101492.94;5114713;28;20283;-77
2020/12/21 10:31:56;;;;;;;16.92;6.93;;;;;;;6.95;93.84;101475.34;5126250;28;20047;-77
2020/12/21 10:34:21;;;;;;;16.80;6.87;;;;;;;6.96;93.58;101481.34;5108349;28;20037;-77
2020/12/21 10:36:50;;;;;;;18.53;5.93;;;;;;;7.00;93.38;101471.34;5127465;28;20031;-77
2020/12/21 10:39:15;;;;;;;15.67;5.73;;;;;;;7.01;93.79;101467.97;5117149;28;20023;-77
2020/12/21 10:41:40;;;;;;;13.98;6.32;;;;;;;7.00;93.91;101458.56;5127269;28;20027;-77
2020/12/21 10:44:06;;;;;;;15.43;5.83;;;;;;;7.04;93.67;101457.03;5098746;28;20015;-78
2020/12/21 10:46:31;;;;;;;19.00;6.37;;;;;;;7.00;93.42;101448.34;5130475;28;20026;-79
2020/12/21 10:48:56;;;;;;;11.73;5.17;;;;;;;7.05;93.49;101444.31;5102925;28;20832;-79
2020/12/21 10:51:29;;;;;;;16.43;6.13;;;;;;;7.06;93.72;101437.53;5103485;28;20027;-78
2020/12/21 10:53:55;;;;;;;11.33;4.47;;;;;;;7.09;93.08;101440.22;5115649;28;20355;-77
2020/12/21 10:56:20;;;;;;;12.05;5.15;;;;;;;7.10;93.21;101436.88;5119216;28;20054;-77
2020/12/21 10:58:46;;;;;;;12.77;4.25;;;;;;;7.16;93.06;101429.53;5119458;28;20110;-80
2020/12/21 11:01:11;;;;;;;13.52;5.05;;;;;;;7.19;92.91;101434.78;5122103;28;20046;-78
2020/12/21 11:03:37;;;;;;;13.52;4.50;;;;;;;7.14;93.12;101424.31;5110251;28;20027;-77
2020/12/21 11:06:02;;;;;;;11.30;4.88;;;;;;;7.17;92.95;101432.16;5108162;28;20059;-78
2020/12/21 11:08:28;;;;;;;13.25;4.72;;;;;;;7.14;92.91;101441.31;5105278;28;20114;-77
2020/12/21 11:10:53;;;;;;;12.97;4.43;;;;;;;7.10;92.93;101424.97;5109370;28;20031;-80
2020/12/21 11:13:18;;;;;;;14.90;5.73;;;;;;;7.17;92.92;101421.94;5129104;28;20697;-77
2020/12/21 11:15:44;;;;;;;13.27;4.10;;;;;;;7.21;93.24;101417.84;5130187;28;20016;-81
2020/12/21 11:18:09;;;;;;;13.53;4.87;;;;;;;7.19;93.13;101414.34;5137898;28;20280;-78
2020/12/21 11:20:34;;;;;;;13.20;5.60;;;;;;;7.20;93.33;101410.97;5120613;27;20781;-79
2020/12/21 11:23:00;;;;;;;12.43;4.60;;;;;;;7.14;92.86;101403.88;5125709;27;20022;-78
2020/12/21 11:25:25;;;;;;;11.90;4.05;;;;;;;7.13;93.21;101408.91;5113484;27;20269;-78